sensor_id;sensor_type;location;lat;lon;timestamp;P1;durP1;ratioP1;P2;durP2;ratioP2
76021;SDS011;64718;52.124;6.226;2023-11-22T00:01:42;14.70;;;8.20;;
76021;SDS011;64718;52.124;6.226;2023-11-22T00:04:13;15.50;;;7.15;;
76021;SDS011;64718;52.124;6.226;2023-11-22T00:06:40;16.10;;;8.60;;
76021;SDS011;64718;52.124;6.226;2023-11-22T00:09:08;18.80;;;8.57;;
76021;SDS011;64718;52.124;6.226;2023-11-22T00:11:34;18.10;;;8.43;;
76021;SDS011;64718;52.124;6.226;2023-11-22T00:14:02;22.75;;;8.93;;
76021;SDS011;64718;52.124;6.226;2023-11-22T00:16:29;17.30;;;7.97;;
76021;SDS011;64718;52.124;6.226;2023-11-22T00:18:56;18.30;;;7.90;;
76021;SDS011;64718;52.124;6.226;2023-11-22T00:21:22;22.17;;;9.15;;
76021;SDS011;64718;52.124;6.226;2023-11-22T00:23:50;16.30;;;7.57;;
76021;SDS011;64718;52.124;6.226;2023-11-22T00:26:17;20.90;;;9.32;;
76021;SDS011;64718;52.124;6.226;2023-11-22T00:28:44;18.48;;;8.55;;
76021;SDS011;64718;52.124;6.226;2023-11-22T00:31:11;18.20;;;7.75;;
76021;SDS011;64718;52.124;6.226;2023-11-22T00:33:39;17.15;;;8.30;;
76021;SDS011;64718;52.124;6.226;2023-11-22T00:36:06;14.70;;;7.97;;
76021;SDS011;64718;52.124;6.226;2023-11-22T00:38:34;18.27;;;8.85;;
76021;SDS011;64718;52.124;6.226;2023-11-22T00:41:02;15.00;;;7.75;;
76021;SDS011;64718;52.124;6.226;2023-11-22T00:43:30;17.48;;;6.25;;
76021;SDS011;64718;52.124;6.226;2023-11-22T00:45:57;16.23;;;8.00;;
76021;SDS011;64718;52.124;6.226;2023-11-22T00:48:24;17.58;;;7.43;;
76021;SDS011;64718;52.124;6.226;2023-11-22T00:50:51;14.85;;;7.03;;
76021;SDS011;64718;52.124;6.226;2023-11-22T00:53:17;20.13;;;8.15;;
76021;SDS011;64718;52.124;6.226;2023-11-22T00:55:44;18.63;;;8.48;;
76021;SDS011;64718;52.124;6.226;2023-11-22T00:58:10;14.38;;;7.38;;
76021;SDS011;64718;52.124;6.226;2023-11-22T01:00:38;18.60;;;8.38;;
76021;SDS011;64718;52.124;6.226;2023-11-22T01:03:05;16.20;;;8.45;;
76021;SDS011;64718;52.124;6.226;2023-11-22T01:05:36;16.50;;;8.82;;
76021;SDS011;64718;52.124;6.226;2023-11-22T01:08:03;15.38;;;7.50;;
76021;SDS011;64718;52.124;6.226;2023-11-22T01:10:29;15.13;;;7.55;;
76021;SDS011;64718;52.124;6.226;2023-11-22T01:12:56;17.35;;;8.00;;
76021;SDS011;64718;52.124;6.226;2023-11-22T01:15:22;13.55;;;7.22;;
76021;SDS011;64718;52.124;6.226;2023-11-22T01:17:51;18.00;;;7.13;;
76021;SDS011;64718;52.124;6.226;2023-11-22T01:20:17;18.40;;;7.25;;
76021;SDS011;64718;52.124;6.226;2023-11-22T01:22:45;18.10;;;8.10;;
76021;SDS011;64718;52.124;6.226;2023-11-22T01:25:12;19.40;;;8.75;;
76021;SDS011;64718;52.124;6.226;2023-11-22T01:27:39;19.23;;;8.30;;
76021;SDS011;64718;52.124;6.226;2023-11-22T01:30:06;17.67;;;9.00;;
76021;SDS011;64718;52.124;6.226;2023-11-22T01:32:33;17.00;;;7.70;;
76021;SDS011;64718;52.124;6.226;2023-11-22T01:35:02;19.15;;;7.95;;
76021;SDS011;64718;52.124;6.226;2023-11-22T01:37:30;13.52;;;7.28;;
76021;SDS011;64718;52.124;6.226;2023-11-22T01:39:57;21.02;;;7.90;;
76021;SDS011;64718;52.124;6.226;2023-11-22T01:42:23;15.68;;;7.38;;
76021;SDS011;64718;52.124;6.226;2023-11-22T01:44:50;14.48;;;7.45;;
76021;SDS011;64718;52.124;6.226;2023-11-22T01:47:17;18.38;;;7.85;;
76021;SDS011;64718;52.124;6.226;2023-11-22T01:49:44;11.68;;;6.35;;
76021;SDS011;64718;52.124;6.226;2023-11-22T01:52:13;15.90;;;7.03;;
76021;SDS011;64718;52.124;6.226;2023-11-22T01:54:39;17.20;;;7.45;;
76021;SDS011;64718;52.124;6.226;2023-11-22T01:57:07;13.65;;;6.70;;
76021;SDS011;64718;52.124;6.226;2023-11-22T01:59:35;18.30;;;8.05;;
76021;SDS011;64718;52.124;6.226;2023-11-22T02:02:03;18.13;;;7.47;;
76021;SDS011;64718;52.124;6.226;2023-11-22T02:04:29;18.10;;;7.90;;
76021;SDS011;64718;52.124;6.226;2023-11-22T02:06:56;17.38;;;7.03;;
76021;SDS011;64718;52.124;6.226;2023-11-22T02:09:24;16.85;;;6.10;;
76021;SDS011;64718;52.124;6.226;2023-11-22T02:11:50;20.38;;;7.95;;
76021;SDS011;64718;52.124;6.226;2023-11-22T02:14:17;15.77;;;7.05;;
76021;SDS011;64718;52.124;6.226;2023-11-22T02:16:44;15.77;;;7.28;;
76021;SDS011;64718;52.124;6.226;2023-11-22T02:19:14;15.88;;;7.95;;
76021;SDS011;64718;52.124;6.226;2023-11-22T02:21:42;21.58;;;8.02;;
76021;SDS011;64718;52.124;6.226;2023-11-22T02:24:10;13.23;;;7.72;;
76021;SDS011;64718;52.124;6.226;2023-11-22T02:26:36;11.73;;;6.45;;
76021;SDS011;64718;52.124;6.226;2023-11-22T02:29:03;17.17;;;7.95;;
76021;SDS011;64718;52.124;6.226;2023-11-22T02:31:30;20.00;;;8.02;;
76021;SDS011;64718;52.124;6.226;2023-11-22T02:33:56;13.65;;;6.32;;
76021;SDS011;64718;52.124;6.226;2023-11-22T02:36:23;14.05;;;7.25;;
76021;SDS011;64718;52.124;6.226;2023-11-22T02:38:50;18.77;;;7.28;;
76021;SDS011;64718;52.124;6.226;2023-11-22T02:41:18;14.27;;;6.65;;
76021;SDS011;64718;52.124;6.226;2023-11-22T02:43:44;14.23;;;7.32;;
76021;SDS011;64718;52.124;6.226;2023-11-22T02:46:11;15.95;;;7.28;;
76021;SDS011;64718;52.124;6.226;2023-11-22T02:48:37;21.42;;;7.97;;
76021;SDS011;64718;52.124;6.226;2023-11-22T02:51:04;16.95;;;7.60;;
76021;SDS011;64718;52.124;6.226;2023-11-22T02:53:31;16.77;;;7.55;;
76021;SDS011;64718;52.124;6.226;2023-11-22T02:55:59;18.40;;;7.40;;
76021;SDS011;64718;52.124;6.226;2023-11-22T02:58:27;14.23;;;7.00;;
76021;SDS011;64718;52.124;6.226;2023-11-22T03:00:54;15.68;;;7.82;;
76021;SDS011;64718;52.124;6.226;2023-11-22T03:03:22;11.90;;;6.07;;
76021;SDS011;64718;52.124;6.226;2023-11-22T03:05:49;12.93;;;6.50;;
76021;SDS011;64718;52.124;6.226;2023-11-22T03:08:16;11.30;;;6.10;;
76021;SDS011;64718;52.124;6.226;2023-11-22T03:10:43;10.70;;;4.88;;
76021;SDS011;64718;52.124;6.226;2023-11-22T03:13:09;14.00;;;6.72;;
76021;SDS011;64718;52.124;6.226;2023-11-22T03:15:37;11.10;;;5.80;;
76021;SDS011;64718;52.124;6.226;2023-11-22T03:18:03;11.30;;;6.47;;
76021;SDS011;64718;52.124;6.226;2023-11-22T03:20:31;11.45;;;4.47;;
76021;SDS011;64718;52.124;6.226;2023-11-22T03:22:58;11.15;;;4.72;;
76021;SDS011;64718;52.124;6.226;2023-11-22T03:25:25;10.35;;;5.32;;
76021;SDS011;64718;52.124;6.226;2023-11-22T03:27:52;9.25;;;5.88;;
76021;SDS011;64718;52.124;6.226;2023-11-22T03:30:18;12.48;;;5.47;;
76021;SDS011;64718;52.124;6.226;2023-11-22T03:32:47;13.93;;;5.90;;
76021;SDS011;64718;52.124;6.226;2023-11-22T03:35:14;14.25;;;5.78;;
76021;SDS011;64718;52.124;6.226;2023-11-22T03:37:41;11.25;;;5.90;;
76021;SDS011;64718;52.124;6.226;2023-11-22T03:40:08;13.00;;;5.55;;
76021;SDS011;64718;52.124;6.226;2023-11-22T03:42:35;15.82;;;6.65;;
76021;SDS011;64718;52.124;6.226;2023-11-22T03:45:02;10.90;;;6.10;;
76021;SDS011;64718;52.124;6.226;2023-11-22T03:47:29;11.90;;;6.25;;
76021;SDS011;64718;52.124;6.226;2023-11-22T03:49:59;12.77;;;6.05;;
76021;SDS011;64718;52.124;6.226;2023-11-22T03:52:25;11.80;;;5.93;;
76021;SDS011;64718;52.124;6.226;2023-11-22T03:54:53;12.70;;;6.03;;
76021;SDS011;64718;52.124;6.226;2023-11-22T03:57:19;9.70;;;5.32;;
76021;SDS011;64718;52.124;6.226;2023-11-22T03:59:46;10.77;;;4.75;;
76021;SDS011;64718;52.124;6.226;2023-11-22T04:02:12;10.20;;;5.32;;
76021;SDS011;64718;52.124;6.226;2023-11-22T04:04:39;9.32;;;5.30;;
76021;SDS011;64718;52.124;6.226;2023-11-22T04:07:07;10.75;;;6.15;;
76021;SDS011;64718;52.124;6.226;2023-11-22T04:09:34;10.45;;;5.15;;
76021;SDS011;64718;52.124;6.226;2023-11-22T04:12:01;8.95;;;4.68;;
76021;SDS011;64718;52.124;6.226;2023-11-22T04:14:29;7.55;;;3.58;;
76021;SDS011;64718;52.124;6.226;2023-11-22T04:16:55;10.10;;;5.15;;
76021;SDS011;64718;52.124;6.226;2023-11-22T04:19:22;12.10;;;4.57;;
76021;SDS011;64718;52.124;6.226;2023-11-22T04:21:48;10.68;;;4.97;;
76021;SDS011;64718;52.124;6.226;2023-11-22T04:24:16;11.45;;;4.85;;
76021;SDS011;64718;52.124;6.226;2023-11-22T04:26:43;12.68;;;6.05;;
76021;SDS011;64718;52.124;6.226;2023-11-22T04:29:11;9.68;;;4.82;;
76021;SDS011;64718;52.124;6.226;2023-11-22T04:31:37;9.93;;;4.40;;
76021;SDS011;64718;52.124;6.226;2023-11-22T04:34:04;9.07;;;4.05;;
76021;SDS011;64718;52.124;6.226;2023-11-22T04:36:31;8.40;;;4.82;;
76021;SDS011;64718;52.124;6.226;2023-11-22T04:38:57;10.30;;;4.47;;
76021;SDS011;64718;52.124;6.226;2023-11-22T04:41:24;7.90;;;4.85;;
76021;SDS011;64718;52.124;6.226;2023-11-22T04:43:51;7.68;;;4.43;;
76021;SDS011;64718;52.124;6.226;2023-11-22T04:46:18;10.55;;;4.88;;
76021;SDS011;64718;52.124;6.226;2023-11-22T04:48:44;13.00;;;5.32;;
76021;SDS011;64718;52.124;6.226;2023-11-22T04:51:15;10.52;;;5.45;;
76021;SDS011;64718;52.124;6.226;2023-11-22T04:53:42;10.50;;;4.72;;
76021;SDS011;64718;52.124;6.226;2023-11-22T04:56:09;7.07;;;4.70;;
76021;SDS011;64718;52.124;6.226;2023-11-22T04:58:37;10.07;;;4.50;;
76021;SDS011;64718;52.124;6.226;2023-11-22T05:01:04;11.60;;;5.78;;
76021;SDS011;64718;52.124;6.226;2023-11-22T05:03:30;8.75;;;4.38;;
76021;SDS011;64718;52.124;6.226;2023-11-22T05:05:57;8.90;;;5.18;;
76021;SDS011;64718;52.124;6.226;2023-11-22T05:08:25;9.52;;;5.15;;
76021;SDS011;64718;52.124;6.226;2023-11-22T05:10:52;11.07;;;5.30;;
76021;SDS011;64718;52.124;6.226;2023-11-22T05:13:19;14.52;;;5.30;;
76021;SDS011;64718;52.124;6.226;2023-11-22T05:15:47;11.13;;;4.93;;
76021;SDS011;64718;52.124;6.226;2023-11-22T05:18:14;9.25;;;5.07;;
76021;SDS011;64718;52.124;6.226;2023-11-22T05:20:40;11.82;;;5.63;;
76021;SDS011;64718;52.124;6.226;2023-11-22T05:23:07;8.65;;;5.03;;
76021;SDS011;64718;52.124;6.226;2023-11-22T05:25:33;8.23;;;5.70;;
76021;SDS011;64718;52.124;6.226;2023-11-22T05:28:01;12.07;;;4.55;;
76021;SDS011;64718;52.124;6.226;2023-11-22T05:30:28;9.70;;;5.00;;
76021;SDS011;64718;52.124;6.226;2023-11-22T05:32:56;10.52;;;4.90;;
76021;SDS011;64718;52.124;6.226;2023-11-22T05:35:23;7.28;;;4.40;;
76021;SDS011;64718;52.124;6.226;2023-11-22T05:37:49;9.93;;;4.95;;
76021;SDS011;64718;52.124;6.226;2023-11-22T05:40:16;9.45;;;5.15;;
76021;SDS011;64718;52.124;6.226;2023-11-22T05:42:42;11.20;;;4.90;;
76021;SDS011;64718;52.124;6.226;2023-11-22T05:45:09;8.82;;;4.72;;
76021;SDS011;64718;52.124;6.226;2023-11-22T05:47:36;10.55;;;5.00;;
76021;SDS011;64718;52.124;6.226;2023-11-22T05:50:04;9.15;;;4.60;;
76021;SDS011;64718;52.124;6.226;2023-11-22T05:52:32;9.40;;;5.05;;
76021;SDS011;64718;52.124;6.226;2023-11-22T05:54:58;12.45;;;5.75;;
76021;SDS011;64718;52.124;6.226;2023-11-22T05:57:28;9.50;;;5.47;;
76021;SDS011;64718;52.124;6.226;2023-11-22T05:59:55;9.57;;;4.82;;
76021;SDS011;64718;52.124;6.226;2023-11-22T06:02:21;10.38;;;5.57;;
76021;SDS011;64718;52.124;6.226;2023-11-22T06:04:48;13.73;;;6.38;;
76021;SDS011;64718;52.124;6.226;2023-11-22T06:07:16;11.93;;;6.78;;
76021;SDS011;64718;52.124;6.226;2023-11-22T06:09:42;12.73;;;5.13;;
76021;SDS011;64718;52.124;6.226;2023-11-22T06:12:09;13.57;;;6.60;;
76021;SDS011;64718;52.124;6.226;2023-11-22T06:14:36;9.82;;;5.68;;
76021;SDS011;64718;52.124;6.226;2023-11-22T06:17:02;11.70;;;6.93;;
76021;SDS011;64718;52.124;6.226;2023-11-22T06:19:29;12.15;;;6.05;;
76021;SDS011;64718;52.124;6.226;2023-11-22T06:21:56;10.70;;;6.13;;
76021;SDS011;64718;52.124;6.226;2023-11-22T06:24:24;8.98;;;5.30;;
76021;SDS011;64718;52.124;6.226;2023-11-22T06:26:51;11.57;;;5.93;;
76021;SDS011;64718;52.124;6.226;2023-11-22T06:29:17;8.73;;;5.15;;
76021;SDS011;64718;52.124;6.226;2023-11-22T06:31:45;12.35;;;5.78;;
76021;SDS011;64718;52.124;6.226;2023-11-22T06:34:11;12.70;;;5.45;;
76021;SDS011;64718;52.124;6.226;2023-11-22T06:36:38;12.52;;;6.07;;
76021;SDS011;64718;52.124;6.226;2023-11-22T06:39:05;12.13;;;7.43;;
76021;SDS011;64718;52.124;6.226;2023-11-22T06:41:35;16.65;;;6.03;;
76021;SDS011;64718;52.124;6.226;2023-11-22T06:44:02;14.88;;;6.88;;
76021;SDS011;64718;52.124;6.226;2023-11-22T06:46:28;13.30;;;6.07;;
76021;SDS011;64718;52.124;6.226;2023-11-22T06:48:55;15.80;;;8.13;;
76021;SDS011;64718;52.124;6.226;2023-11-22T06:51:22;11.93;;;7.07;;
76021;SDS011;64718;52.124;6.226;2023-11-22T06:53:49;11.98;;;6.53;;
76021;SDS011;64718;52.124;6.226;2023-11-22T06:56:16;12.60;;;5.97;;
76021;SDS011;64718;52.124;6.226;2023-11-22T06:58:45;8.93;;;5.18;;
76021;SDS011;64718;52.124;6.226;2023-11-22T07:01:12;16.17;;;7.60;;
76021;SDS011;64718;52.124;6.226;2023-11-22T07:03:39;10.45;;;6.22;;
76021;SDS011;64718;52.124;6.226;2023-11-22T07:06:07;14.40;;;6.28;;
76021;SDS011;64718;52.124;6.226;2023-11-22T07:08:34;12.07;;;6.88;;
76021;SDS011;64718;52.124;6.226;2023-11-22T07:11:01;15.27;;;8.45;;
76021;SDS011;64718;52.124;6.226;2023-11-22T07:13:28;13.95;;;8.75;;
76021;SDS011;64718;52.124;6.226;2023-11-22T07:15:56;18.42;;;7.90;;
76021;SDS011;64718;52.124;6.226;2023-11-22T07:18:23;15.45;;;7.75;;
76021;SDS011;64718;52.124;6.226;2023-11-22T07:20:49;15.38;;;7.90;;
76021;SDS011;64718;52.124;6.226;2023-11-22T07:23:18;16.13;;;8.07;;
76021;SDS011;64718;52.124;6.226;2023-11-22T07:25:46;13.90;;;6.93;;
76021;SDS011;64718;52.124;6.226;2023-11-22T07:28:13;11.07;;;5.30;;
76021;SDS011;64718;52.124;6.226;2023-11-22T07:30:39;14.50;;;5.82;;
76021;SDS011;64718;52.124;6.226;2023-11-22T07:33:08;12.45;;;6.97;;
76021;SDS011;64718;52.124;6.226;2023-11-22T07:35:35;12.75;;;6.53;;
76021;SDS011;64718;52.124;6.226;2023-11-22T07:38:01;9.85;;;5.47;;
76021;SDS011;64718;52.124;6.226;2023-11-22T07:40:29;9.07;;;5.65;;
76021;SDS011;64718;52.124;6.226;2023-11-22T07:42:55;10.52;;;6.00;;
76021;SDS011;64718;52.124;6.226;2023-11-22T07:45:22;13.25;;;5.72;;
76021;SDS011;64718;52.124;6.226;2023-11-22T07:47:48;10.85;;;6.38;;
76021;SDS011;64718;52.124;6.226;2023-11-22T07:50:19;8.40;;;5.90;;
76021;SDS011;64718;52.124;6.226;2023-11-22T07:52:47;9.98;;;6.35;;
76021;SDS011;64718;52.124;6.226;2023-11-22T07:55:13;9.35;;;5.32;;
76021;SDS011;64718;52.124;6.226;2023-11-22T07:57:43;10.07;;;5.70;;
76021;SDS011;64718;52.124;6.226;2023-11-22T08:00:10;13.95;;;6.68;;
76021;SDS011;64718;52.124;6.226;2023-11-22T08:02:38;13.90;;;6.40;;
76021;SDS011;64718;52.124;6.226;2023-11-22T08:05:05;12.80;;;6.53;;
76021;SDS011;64718;52.124;6.226;2023-11-22T08:07:34;16.10;;;7.80;;
76021;SDS011;64718;52.124;6.226;2023-11-22T08:10:03;22.40;;;11.70;;
76021;SDS011;64718;52.124;6.226;2023-11-22T08:12:34;18.98;;;10.48;;
76021;SDS011;64718;52.124;6.226;2023-11-22T08:15:01;21.15;;;9.38;;
76021;SDS011;64718;52.124;6.226;2023-11-22T08:17:28;16.67;;;9.57;;
76021;SDS011;64718;52.124;6.226;2023-11-22T08:19:57;14.93;;;7.95;;
76021;SDS011;64718;52.124;6.226;2023-11-22T08:22:24;15.35;;;7.57;;
76021;SDS011;64718;52.124;6.226;2023-11-22T08:24:53;17.52;;;7.15;;
76021;SDS011;64718;52.124;6.226;2023-11-22T08:27:22;17.80;;;8.43;;
76021;SDS011;64718;52.124;6.226;2023-11-22T08:29:49;15.95;;;8.15;;
76021;SDS011;64718;52.124;6.226;2023-11-22T08:32:15;22.02;;;13.13;;
76021;SDS011;64718;52.124;6.226;2023-11-22T08:34:43;16.85;;;9.95;;
76021;SDS011;64718;52.124;6.226;2023-11-22T08:37:10;17.10;;;9.43;;
76021;SDS011;64718;52.124;6.226;2023-11-22T08:39:37;22.77;;;12.98;;
76021;SDS011;64718;52.124;6.226;2023-11-22T08:42:05;20.30;;;12.15;;
76021;SDS011;64718;52.124;6.226;2023-11-22T08:44:34;20.30;;;11.57;;
76021;SDS011;64718;52.124;6.226;2023-11-22T08:47:01;15.60;;;8.82;;
76021;SDS011;64718;52.124;6.226;2023-11-22T08:49:28;17.73;;;9.48;;
76021;SDS011;64718;52.124;6.226;2023-11-22T08:51:55;18.73;;;8.85;;
76021;SDS011;64718;52.124;6.226;2023-11-22T08:54:22;17.27;;;8.63;;
76021;SDS011;64718;52.124;6.226;2023-11-22T08:56:48;17.92;;;8.65;;
76021;SDS011;64718;52.124;6.226;2023-11-22T08:59:16;19.23;;;7.30;;
76021;SDS011;64718;52.124;6.226;2023-11-22T09:01:43;15.40;;;8.60;;
76021;SDS011;64718;52.124;6.226;2023-11-22T09:04:10;19.02;;;9.20;;
76021;SDS011;64718;52.124;6.226;2023-11-22T09:06:38;17.15;;;8.93;;
76021;SDS011;64718;52.124;6.226;2023-11-22T09:09:05;19.30;;;8.82;;
76021;SDS011;64718;52.124;6.226;2023-11-22T09:11:32;19.60;;;8.80;;
76021;SDS011;64718;52.124;6.226;2023-11-22T09:13:59;20.13;;;8.93;;
76021;SDS011;64718;52.124;6.226;2023-11-22T09:16:35;22.75;;;9.63;;
76021;SDS011;64718;52.124;6.226;2023-11-22T09:19:02;19.92;;;9.10;;
76021;SDS011;64718;52.124;6.226;2023-11-22T09:21:29;18.35;;;8.90;;
76021;SDS011;64718;52.124;6.226;2023-11-22T09:23:55;22.00;;;9.45;;
76021;SDS011;64718;52.124;6.226;2023-11-22T09:26:22;19.80;;;8.57;;
76021;SDS011;64718;52.124;6.226;2023-11-22T09:28:48;20.10;;;8.77;;
76021;SDS011;64718;52.124;6.226;2023-11-22T09:31:15;19.75;;;9.18;;
76021;SDS011;64718;52.124;6.226;2023-11-22T09:33:46;21.60;;;8.63;;
76021;SDS011;64718;52.124;6.226;2023-11-22T09:36:13;16.42;;;8.43;;
76021;SDS011;64718;52.124;6.226;2023-11-22T09:38:43;17.58;;;7.95;;
76021;SDS011;64718;52.124;6.226;2023-11-22T09:41:09;16.20;;;9.55;;
76021;SDS011;64718;52.124;6.226;2023-11-22T09:43:36;15.70;;;9.32;;
76021;SDS011;64718;52.124;6.226;2023-11-22T09:46:05;20.60;;;9.15;;
76021;SDS011;64718;52.124;6.226;2023-11-22T09:48:34;15.20;;;8.50;;
76021;SDS011;64718;52.124;6.226;2023-11-22T09:51:04;18.83;;;9.10;;
76021;SDS011;64718;52.124;6.226;2023-11-22T09:53:36;18.30;;;9.27;;
76021;SDS011;64718;52.124;6.226;2023-11-22T09:56:07;13.52;;;6.15;;
76021;SDS011;64718;52.124;6.226;2023-11-22T09:58:35;19.08;;;9.25;;
76021;SDS011;64718;52.124;6.226;2023-11-22T10:01:03;17.75;;;7.55;;
76021;SDS011;64718;52.124;6.226;2023-11-22T10:03:32;18.67;;;8.73;;
76021;SDS011;64718;52.124;6.226;2023-11-22T10:05:59;17.30;;;7.97;;
76021;SDS011;64718;52.124;6.226;2023-11-22T10:08:27;12.88;;;7.35;;
76021;SDS011;64718;52.124;6.226;2023-11-22T10:10:55;17.92;;;9.55;;
76021;SDS011;64718;52.124;6.226;2023-11-22T10:13:22;17.50;;;8.27;;
76021;SDS011;64718;52.124;6.226;2023-11-22T10:15:49;16.40;;;7.25;;
76021;SDS011;64718;52.124;6.226;2023-11-22T10:18:16;19.95;;;8.82;;
76021;SDS011;64718;52.124;6.226;2023-11-22T10:20:43;11.40;;;6.97;;
76021;SDS011;64718;52.124;6.226;2023-11-22T10:23:12;17.73;;;8.02;;
76021;SDS011;64718;52.124;6.226;2023-11-22T10:25:43;15.77;;;7.00;;
76021;SDS011;64718;52.124;6.226;2023-11-22T10:28:12;15.27;;;8.20;;
76021;SDS011;64718;52.124;6.226;2023-11-22T10:30:39;17.55;;;9.00;;
76021;SDS011;64718;52.124;6.226;2023-11-22T10:33:06;15.00;;;7.22;;
76021;SDS011;64718;52.124;6.226;2023-11-22T10:35:33;15.85;;;7.40;;
76021;SDS011;64718;52.124;6.226;2023-11-22T10:37:59;14.60;;;6.78;;
76021;SDS011;64718;52.124;6.226;2023-11-22T10:40:28;16.88;;;7.18;;
76021;SDS011;64718;52.124;6.226;2023-11-22T10:42:56;13.07;;;7.05;;
76021;SDS011;64718;52.124;6.226;2023-11-22T10:45:23;14.18;;;7.28;;
76021;SDS011;64718;52.124;6.226;2023-11-22T10:47:55;14.98;;;7.18;;
76021;SDS011;64718;52.124;6.226;2023-11-22T10:50:22;15.85;;;8.50;;
76021;SDS011;64718;52.124;6.226;2023-11-22T10:52:50;13.23;;;7.30;;
76021;SDS011;64718;52.124;6.226;2023-11-22T10:55:20;11.48;;;7.65;;
76021;SDS011;64718;52.124;6.226;2023-11-22T10:57:49;12.13;;;7.55;;
76021;SDS011;64718;52.124;6.226;2023-11-22T11:00:20;13.32;;;7.78;;
76021;SDS011;64718;52.124;6.226;2023-11-22T11:02:50;9.75;;;5.45;;
76021;SDS011;64718;52.124;6.226;2023-11-22T11:05:22;14.02;;;7.50;;
76021;SDS011;64718;52.124;6.226;2023-11-22T11:07:54;10.52;;;6.65;;
76021;SDS011;64718;52.124;6.226;2023-11-22T11:10:31;11.75;;;6.63;;
76021;SDS011;64718;52.124;6.226;2023-11-22T11:12:59;14.88;;;7.13;;
76021;SDS011;64718;52.124;6.226;2023-11-22T11:15:28;10.00;;;5.13;;
76021;SDS011;64718;52.124;6.226;2023-11-22T11:17:54;12.35;;;7.30;;
76021;SDS011;64718;52.124;6.226;2023-11-22T11:20:22;13.27;;;7.47;;
76021;SDS011;64718;52.124;6.226;2023-11-22T11:22:49;11.98;;;6.03;;
76021;SDS011;64718;52.124;6.226;2023-11-22T11:25:17;12.77;;;9.20;;
76021;SDS011;64718;52.124;6.226;2023-11-22T11:27:44;11.13;;;6.15;;
76021;SDS011;64718;52.124;6.226;2023-11-22T11:33:08;10.73;;;6.43;;
76021;SDS011;64718;52.124;6.226;2023-11-22T11:35:37;9.32;;;6.57;;
76021;SDS011;64718;52.124;6.226;2023-11-22T11:38:04;14.02;;;6.80;;
76021;SDS011;64718;52.124;6.226;2023-11-22T11:40:34;10.25;;;7.13;;
76021;SDS011;64718;52.124;6.226;2023-11-22T11:43:01;8.82;;;5.75;;
76021;SDS011;64718;52.124;6.226;2023-11-22T11:45:28;9.70;;;6.00;;
76021;SDS011;64718;52.124;6.226;2023-11-22T11:47:57;10.68;;;6.72;;
76021;SDS011;64718;52.124;6.226;2023-11-22T11:50:24;11.32;;;7.28;;
76021;SDS011;64718;52.124;6.226;2023-11-22T11:52:51;13.93;;;8.00;;
76021;SDS011;64718;52.124;6.226;2023-11-22T11:55:18;10.20;;;5.75;;
76021;SDS011;64718;52.124;6.226;2023-11-22T11:57:45;13.73;;;7.65;;
76021;SDS011;64718;52.124;6.226;2023-11-22T12:00:12;14.18;;;7.32;;
76021;SDS011;64718;52.124;6.226;2023-11-22T12:02:40;13.40;;;7.32;;
76021;SDS011;64718;52.124;6.226;2023-11-22T12:05:08;10.00;;;6.55;;
76021;SDS011;64718;52.124;6.226;2023-11-22T12:07:35;10.30;;;6.07;;
76021;SDS011;64718;52.124;6.226;2023-11-22T12:10:01;10.50;;;6.07;;
76021;SDS011;64718;52.124;6.226;2023-11-22T12:12:28;12.52;;;6.50;;
76021;SDS011;64718;52.124;6.226;2023-11-22T12:14:55;11.93;;;5.93;;
76021;SDS011;64718;52.124;6.226;2023-11-22T12:17:22;11.52;;;6.60;;
76021;SDS011;64718;52.124;6.226;2023-11-22T12:19:49;11.63;;;6.32;;
76021;SDS011;64718;52.124;6.226;2023-11-22T12:22:17;12.93;;;7.53;;
76021;SDS011;64718;52.124;6.226;2023-11-22T12:24:43;10.13;;;5.38;;
76021;SDS011;64718;52.124;6.226;2023-11-22T12:27:10;9.45;;;5.75;;
76021;SDS011;64718;52.124;6.226;2023-11-22T12:29:36;11.48;;;6.53;;
76021;SDS011;64718;52.124;6.226;2023-11-22T12:32:03;10.45;;;5.75;;
76021;SDS011;64718;52.124;6.226;2023-11-22T12:34:31;9.90;;;7.05;;
76021;SDS011;64718;52.124;6.226;2023-11-22T12:36:58;8.40;;;4.57;;
76021;SDS011;64718;52.124;6.226;2023-11-22T12:39:28;9.00;;;5.63;;
76021;SDS011;64718;52.124;6.226;2023-11-22T12:41:54;9.15;;;4.55;;
76021;SDS011;64718;52.124;6.226;2023-11-22T12:44:22;10.30;;;5.63;;
76021;SDS011;64718;52.124;6.226;2023-11-22T12:46:49;8.98;;;3.83;;
76021;SDS011;64718;52.124;6.226;2023-11-22T12:49:22;6.78;;;3.38;;
76021;SDS011;64718;52.124;6.226;2023-11-22T12:51:49;8.75;;;5.35;;
76021;SDS011;64718;52.124;6.226;2023-11-22T12:54:17;7.57;;;4.50;;
76021;SDS011;64718;52.124;6.226;2023-11-22T12:56:47;9.82;;;5.60;;
76021;SDS011;64718;52.124;6.226;2023-11-22T12:59:15;8.07;;;5.10;;
76021;SDS011;64718;52.124;6.226;2023-11-22T13:01:42;8.40;;;5.50;;
76021;SDS011;64718;52.124;6.226;2023-11-22T13:04:09;8.20;;;5.80;;
76021;SDS011;64718;52.124;6.226;2023-11-22T13:06:36;10.63;;;5.63;;
76021;SDS011;64718;52.124;6.226;2023-11-22T13:09:03;9.18;;;5.20;;
76021;SDS011;64718;52.124;6.226;2023-11-22T13:11:29;9.55;;;5.43;;
76021;SDS011;64718;52.124;6.226;2023-11-22T13:13:58;9.15;;;5.28;;
76021;SDS011;64718;52.124;6.226;2023-11-22T13:16:25;10.43;;;5.47;;
76021;SDS011;64718;52.124;6.226;2023-11-22T13:18:52;7.78;;;4.70;;
76021;SDS011;64718;52.124;6.226;2023-11-22T13:21:18;7.68;;;4.90;;
76021;SDS011;64718;52.124;6.226;2023-11-22T13:23:45;11.73;;;5.57;;
76021;SDS011;64718;52.124;6.226;2023-11-22T13:26:11;10.57;;;5.50;;
76021;SDS011;64718;52.124;6.226;2023-11-22T13:28:39;8.93;;;4.93;;
76021;SDS011;64718;52.124;6.226;2023-11-22T13:31:08;9.55;;;5.35;;
76021;SDS011;64718;52.124;6.226;2023-11-22T13:33:37;11.38;;;5.55;;
76021;SDS011;64718;52.124;6.226;2023-11-22T13:36:04;11.93;;;7.25;;
76021;SDS011;64718;52.124;6.226;2023-11-22T13:40:59;12.23;;;5.80;;
76021;SDS011;64718;52.124;6.226;2023-11-22T13:43:25;13.45;;;6.57;;
76021;SDS011;64718;52.124;6.226;2023-11-22T13:45:52;9.32;;;5.90;;
76021;SDS011;64718;52.124;6.226;2023-11-22T13:48:20;14.13;;;6.63;;
76021;SDS011;64718;52.124;6.226;2023-11-22T13:50:48;14.43;;;7.78;;
76021;SDS011;64718;52.124;6.226;2023-11-22T13:53:15;12.77;;;6.15;;
76021;SDS011;64718;52.124;6.226;2023-11-22T13:55:46;13.60;;;6.93;;
76021;SDS011;64718;52.124;6.226;2023-11-22T13:58:12;11.73;;;6.18;;
76021;SDS011;64718;52.124;6.226;2023-11-22T14:00:39;13.00;;;6.75;;
76021;SDS011;64718;52.124;6.226;2023-11-22T14:03:05;11.38;;;7.18;;
76021;SDS011;64718;52.124;6.226;2023-11-22T14:05:34;17.05;;;7.43;;
76021;SDS011;64718;52.124;6.226;2023-11-22T14:08:03;13.35;;;8.07;;
76021;SDS011;64718;52.124;6.226;2023-11-22T14:10:31;12.15;;;7.13;;
76021;SDS011;64718;52.124;6.226;2023-11-22T14:12:58;17.80;;;8.65;;
76021;SDS011;64718;52.124;6.226;2023-11-22T14:15:25;14.15;;;7.72;;
76021;SDS011;64718;52.124;6.226;2023-11-22T14:17:53;12.45;;;6.32;;
76021;SDS011;64718;52.124;6.226;2023-11-22T14:20:19;14.88;;;6.70;;
76021;SDS011;64718;52.124;6.226;2023-11-22T14:22:48;15.02;;;7.63;;
76021;SDS011;64718;52.124;6.226;2023-11-22T14:25:14;14.82;;;7.68;;
76021;SDS011;64718;52.124;6.226;2023-11-22T14:27:41;17.40;;;7.72;;
76021;SDS011;64718;52.124;6.226;2023-11-22T14:30:09;20.40;;;9.38;;
76021;SDS011;64718;52.124;6.226;2023-11-22T14:32:39;17.67;;;8.60;;
76021;SDS011;64718;52.124;6.226;2023-11-22T14:35:07;18.75;;;8.93;;
76021;SDS011;64718;52.124;6.226;2023-11-22T14:37:34;15.70;;;7.88;;
76021;SDS011;64718;52.124;6.226;2023-11-22T14:40:06;18.70;;;9.05;;
76021;SDS011;64718;52.124;6.226;2023-11-22T14:42:38;17.92;;;8.90;;